Time;durP1;ratioP1;P1;durP2;ratioP2;P2;SDS_P1;SDS_P2;PMS_P1;PMS_P2;Temp;Humidity;BMP_temperature;BMP_pressure;BME280_temperature;BME280_humidity;BME280_pressure;Samples;Min_cycle;Max_cycle;Signal;HPM_P1;HPM_P2
2022/03/14 00:01:40;;;;;;;12.60;6.97;;;;;;;;;;4181469;28;20080;-88
2022/03/14 00:03:46;;;;;;;13.50;6.60;;;;;;;;;;4181130;28;20048;-88
2022/03/14 00:05:49;;;;;;;11.63;7.57;;;;;;;;;;4181622;28;20410;-88
2022/03/14 00:07:51;;;;;;;13.55;7.30;;;;;;;;;;4176194;28;20087;-88
2022/03/14 00:09:52;;;;;;;13.65;7.40;;;;;;;;;;4181107;28;20119;-89
2022/03/14 00:11:55;;;;;;;14.38;7.00;;;;;;;;;;4182460;28;20127;-89
2022/03/14 00:13:59;;;;;;;16.98;7.95;;;;;;;;;;4185045;28;20128;-89
2022/03/14 00:16:26;;;;;;;14.90;7.57;;;;;;;;;;4183901;28;20051;-89
2022/03/14 00:18:29;;;;;;;13.48;6.25;;;;;;;;;;4184160;28;20045;-86
2022/03/14 00:20:32;;;;;;;12.57;7.07;;;;;;;;;;4185100;28;20045;-88
2022/03/14 00:22:34;;;;;;;13.38;7.93;;;;;;;;;;4184771;28;20044;-88
2022/03/14 00:24:35;;;;;;;12.93;7.13;;;;;;;;;;4182602;28;20466;-88
2022/03/14 00:26:36;;;;;;;14.18;7.72;;;;;;;;;;4183995;28;20049;-89
2022/03/14 00:28:37;;;;;;;12.82;7.45;;;;;;;;;;4183649;28;20527;-89
2022/03/14 00:30:39;;;;;;;11.95;7.30;;;;;;;;;;4184270;28;20124;-88
2022/03/14 00:32:41;;;;;;;15.77;8.27;;;;;;;;;;4183066;28;20045;-87
2022/03/14 00:34:42;;;;;;;16.33;8.15;;;;;;;;;;4183513;28;20102;-88
2022/03/14 00:36:44;;;;;;;14.60;7.78;;;;;;;;;;4184058;28;20033;-89
2022/03/14 00:38:46;;;;;;;12.38;7.32;;;;;;;;;;4184160;28;20045;-88
2022/03/14 00:40:47;;;;;;;15.63;7.90;;;;;;;;;;4183972;28;20120;-89
2022/03/14 00:42:50;;;;;;;13.35;7.20;;;;;;;;;;4183446;28;20063;-88
2022/03/14 00:44:52;;;;;;;17.02;7.50;;;;;;;;;;4184000;28;20049;-89
2022/03/14 00:46:53;;;;;;;14.27;8.13;;;;;;;;;;4182272;28;20071;-88
2022/03/14 00:48:55;;;;;;;15.73;7.82;;;;;;;;;;4183834;28;20041;-89
2022/03/14 00:50:56;;;;;;;12.45;7.10;;;;;;;;;;4183708;28;20080;-88
2022/03/14 00:52:58;;;;;;;12.02;7.78;;;;;;;;;;4184111;28;20128;-89
2022/03/14 00:55:01;;;;;;;12.88;7.38;;;;;;;;;;4184735;28;20068;-88
2022/03/14 00:57:02;;;;;;;16.48;7.55;;;;;;;;;;4182155;28;20037;-89
2022/03/14 00:59:03;;;;;;;11.55;6.88;;;;;;;;;;4183805;28;20449;-88
2022/03/14 01:01:05;;;;;;;13.38;7.78;;;;;;;;;;4183460;28;20044;-87
2022/03/14 01:03:06;;;;;;;14.57;7.43;;;;;;;;;;4182972;28;20108;-88
2022/03/14 01:05:07;;;;;;;13.65;8.40;;;;;;;;;;4183575;28;20086;-88
2022/03/14 01:07:08;;;;;;;10.82;6.30;;;;;;;;;;4183830;28;20056;-88
2022/03/14 01:09:11;;;;;;;15.85;6.88;;;;;;;;;;4183856;28;20052;-88
2022/03/14 01:11:12;;;;;;;11.27;6.47;;;;;;;;;;4183941;28;20475;-88
2022/03/14 01:13:15;;;;;;;11.23;6.38;;;;;;;;;;4183011;28;20129;-88
2022/03/14 01:15:16;;;;;;;14.05;7.30;;;;;;;;;;4183464;28;20052;-88
2022/03/14 01:17:17;;;;;;;11.52;6.68;;;;;;;;;;4183365;28;20138;-88
2022/03/14 01:19:24;;;;;;;12.85;7.20;;;;;;;;;;4182855;28;20053;-89
2022/03/14 01:21:27;;;;;;;14.02;6.78;;;;;;;;;;4185451;28;20052;-88
2022/03/14 01:23:29;;;;;;;11.40;6.65;;;;;;;;;;4183633;28;20061;-89
2022/03/14 01:25:30;;;;;;;11.13;7.00;;;;;;;;;;4185101;28;20040;-89
2022/03/14 01:27:37;;;;;;;12.68;7.25;;;;;;;;;;4167285;28;20053;-89
2022/03/14 01:29:39;;;;;;;13.90;6.65;;;;;;;;;;4183320;28;20415;-88
2022/03/14 01:31:40;;;;;;;14.20;6.47;;;;;;;;;;4181831;28;20041;-89
2022/03/14 01:33:54;;;;;;;9.80;6.00;;;;;;;;;;4183965;28;20049;-86
2022/03/14 01:35:56;;;;;;;11.52;5.82;;;;;;;;;;4183080;28;20293;-89
2022/03/14 01:38:05;;;;;;;12.82;5.95;;;;;;;;;;4166450;28;20099;-89
2022/03/14 01:40:10;;;;;;;13.23;7.18;;;;;;;;;;4166490;28;20080;-89
2022/03/14 01:42:19;;;;;;;12.35;6.78;;;;;;;;;;4172478;28;20041;-89
2022/03/14 01:44:27;;;;;;;;;;;;;;;;;;4173932;28;20040;-88
2022/03/14 01:46:28;;;;;;;12.52;6.22;;;;;;;;;;4183282;28;19921;-90
2022/03/14 01:48:29;;;;;;;10.57;6.22;;;;;;;;;;4183736;28;20100;-89
2022/03/14 01:50:30;;;;;;;13.48;7.03;;;;;;;;;;4183987;28;20076;-89
2022/03/14 01:52:36;;;;;;;10.43;5.75;;;;;;;;;;4190390;28;20490;-89
2022/03/14 01:54:46;;;;;;;11.40;7.22;;;;;;;;;;4165809;28;20057;-89
2022/03/14 01:56:48;;;;;;;10.07;5.78;;;;;;;;;;4165479;28;20064;-88
2022/03/14 01:58:52;;;;;;;11.55;6.38;;;;;;;;;;4176045;28;20044;-89
2022/03/14 02:01:05;;;;;;;10.52;6.65;;;;;;;;;;4183815;28;20048;-88
2022/03/14 02:03:15;;;;;;;10.82;6.40;;;;;;;;;;4164902;28;20042;-89
2022/03/14 02:05:24;;;;;;;12.85;7.03;;;;;;;;;;4177966;28;20049;-88
2022/03/14 02:07:31;;;;;;;10.13;5.80;;;;;;;;;;4173722;28;20037;-88
2022/03/14 02:09:38;;;;;;;10.88;6.25;;;;;;;;;;4179457;28;20044;-88
2022/03/14 02:11:39;;;;;;;11.00;6.13;;;;;;;;;;4181499;28;20053;-89
2022/03/14 02:13:41;;;;;;;9.63;5.97;;;;;;;;;;4181633;28;20094;-88
2022/03/14 02:15:46;;;;;;;9.80;5.72;;;;;;;;;;4181711;28;20466;-88
2022/03/14 02:17:56;;;;;;;10.52;6.00;;;;;;;;;;4181409;28;20049;-88
2022/03/14 02:20:00;;;;;;;9.38;6.10;;;;;;;;;;4181367;28;20505;-88
2022/03/14 02:22:05;;;;;;;11.23;6.90;;;;;;;;;;4180070;28;20230;-88
2022/03/14 02:24:07;;;;;;;10.50;6.47;;;;;;;;;;4180665;28;20052;-87
2022/03/14 02:26:08;;;;;;;12.35;6.57;;;;;;;;;;4181737;28;20124;-88
2022/03/14 02:28:09;;;;;;;13.52;7.20;;;;;;;;;;4181255;28;20048;-88
2022/03/14 02:30:10;;;;;;;12.45;6.63;;;;;;;;;;4164604;28;20052;-88
2022/03/14 02:32:12;;;;;;;13.60;7.63;;;;;;;;;;4165837;28;20045;-87
2022/03/14 02:34:14;;;;;;;11.05;6.43;;;;;;;;;;4181782;28;20049;-87
2022/03/14 02:36:15;;;;;;;11.93;6.63;;;;;;;;;;4181459;28;20091;-88
2022/03/14 02:38:17;;;;;;;10.80;7.20;;;;;;;;;;4182120;28;20071;-87
2022/03/14 02:40:19;;;;;;;11.07;6.85;;;;;;;;;;4182745;28;20040;-88
2022/03/14 02:42:20;;;;;;;11.18;6.43;;;;;;;;;;4182276;28;20501;-87
2022/03/14 02:44:21;;;;;;;11.93;6.45;;;;;;;;;;4182210;28;20094;-88
2022/03/14 02:46:22;;;;;;;11.20;6.47;;;;;;;;;;4180347;28;20049;-87
2022/03/14 02:48:23;;;;;;;9.73;6.50;;;;;;;;;;4182155;28;20049;-87
2022/03/14 02:50:24;;;;;;;8.93;5.60;;;;;;;;;;4182331;28;20048;-87
2022/03/14 02:52:26;;;;;;;10.32;5.93;;;;;;;;;;4182653;28;20057;-87
2022/03/14 02:54:28;;;;;;;12.43;7.05;;;;;;;;;;4182047;28;20410;-88
2022/03/14 02:56:29;;;;;;;9.48;5.78;;;;;;;;;;4182470;28;20132;-86
2022/03/14 02:58:32;;;;;;;15.77;6.35;;;;;;;;;;4181862;28;20403;-88
2022/03/14 03:00:35;;;;;;;14.25;7.25;;;;;;;;;;4182165;28;20044;-89
2022/03/14 03:02:37;;;;;;;10.02;5.82;;;;;;;;;;4181016;28;20041;-89
2022/03/14 03:04:40;;;;;;;9.52;6.72;;;;;;;;;;4181684;28;20049;-88
2022/03/14 03:06:42;;;;;;;10.43;6.00;;;;;;;;;;4182356;28;20044;-87
2022/03/14 03:08:44;;;;;;;8.63;5.68;;;;;;;;;;4182038;28;20206;-87
2022/03/14 03:10:45;;;;;;;9.95;6.07;;;;;;;;;;4181972;28;20049;-87
2022/03/14 03:12:46;;;;;;;12.43;6.03;;;;;;;;;;4181740;28;20048;-88
2022/03/14 03:14:50;;;;;;;11.93;6.15;;;;;;;;;;4182277;28;20095;-88
2022/03/14 03:16:51;;;;;;;9.43;5.82;;;;;;;;;;4180284;28;20550;-87
2022/03/14 03:18:52;;;;;;;9.98;6.35;;;;;;;;;;4181892;28;20409;-87
2022/03/14 03:20:53;;;;;;;11.48;6.05;;;;;;;;;;4181735;28;20058;-88
2022/03/14 03:22:55;;;;;;;11.80;6.30;;;;;;;;;;4181812;28;20045;-88
2022/03/14 03:24:57;;;;;;;11.32;6.55;;;;;;;;;;4181949;28;20045;-88
2022/03/14 03:26:58;;;;;;;9.48;6.05;;;;;;;;;;4181576;28;20052;-87
2022/03/14 03:29:00;;;;;;;13.07;7.13;;;;;;;;;;4182037;28;20064;-87
2022/03/14 03:31:10;;;;;;;11.15;6.38;;;;;;;;;;4180955;28;20045;-87
2022/03/14 03:33:11;;;;;;;11.63;6.55;;;;;;;;;;4181959;28;20097;-88
2022/03/14 03:35:12;;;;;;;10.25;6.85;;;;;;;;;;4181745;28;20052;-87
2022/03/14 03:37:15;;;;;;;12.95;6.43;;;;;;;;;;4181904;28;20045;-88
2022/03/14 03:39:17;;;;;;;10.98;6.55;;;;;;;;;;4181749;28;20033;-88
2022/03/14 03:41:19;;;;;;;10.93;6.88;;;;;;;;;;4181423;28;20040;-87
2022/03/14 03:43:20;;;;;;;11.40;6.60;;;;;;;;;;4181710;28;20487;-88
2022/03/14 03:45:22;;;;;;;16.13;6.70;;;;;;;;;;4182287;28;20044;-88
2022/03/14 03:47:24;;;;;;;11.00;6.85;;;;;;;;;;4181365;28;20057;-87
2022/03/14 03:49:25;;;;;;;11.70;6.68;;;;;;;;;;4188249;28;20048;-88
2022/03/14 03:51:26;;;;;;;14.93;7.55;;;;;;;;;;4189251;28;20052;-88
2022/03/14 03:53:27;;;;;;;11.27;7.20;;;;;;;;;;4189555;28;20056;-88
2022/03/14 03:55:28;;;;;;;12.32;7.10;;;;;;;;;;4188668;28;20123;-86
2022/03/14 03:57:30;;;;;;;10.50;5.97;;;;;;;;;;4184538;28;20680;-88
2022/03/14 03:59:31;;;;;;;8.88;5.95;;;;;;;;;;4182016;28;20041;-86
2022/03/14 04:01:32;;;;;;;9.40;6.18;;;;;;;;;;4181689;28;20037;-87
2022/03/14 04:03:34;;;;;;;10.23;5.97;;;;;;;;;;4181862;28;20053;-87
2022/03/14 04:05:39;;;;;;;11.93;6.05;;;;;;;;;;4183461;28;20049;-88
2022/03/14 04:07:40;;;;;;;10.40;6.65;;;;;;;;;;4179543;28;20117;-88
2022/03/14 04:09:41;;;;;;;9.73;5.63;;;;;;;;;;4181218;28;20047;-88
2022/03/14 04:11:43;;;;;;;11.63;6.05;;;;;;;;;;4182143;28;20045;-88
2022/03/14 04:13:45;;;;;;;12.25;6.30;;;;;;;;;;4181434;28;20056;-89
2022/03/14 04:15:51;;;;;;;11.05;6.95;;;;;;;;;;4181974;28;20186;-87
2022/03/14 04:17:53;;;;;;;9.82;5.72;;;;;;;;;;4181570;28;20456;-89
2022/03/14 04:19:57;;;;;;;9.57;5.57;;;;;;;;;;4181234;28;20419;-88
2022/03/14 04:21:58;;;;;;;10.82;6.53;;;;;;;;;;4182067;28;20106;-87
2022/03/14 04:24:04;;;;;;;8.77;5.50;;;;;;;;;;4181316;28;20478;-87
2022/03/14 04:26:05;;;;;;;10.00;5.40;;;;;;;;;;4181837;28;20049;-87
2022/03/14 04:28:07;;;;;;;10.85;5.53;;;;;;;;;;4181801;28;20449;-87
2022/03/14 04:30:09;;;;;;;9.27;6.10;;;;;;;;;;4181294;28;20045;-87
2022/03/14 04:32:10;;;;;;;13.13;6.05;;;;;;;;;;4181239;28;20394;-87
2022/03/14 04:34:12;;;;;;;11.20;5.70;;;;;;;;;;4180618;28;20061;-88
2022/03/14 04:36:13;;;;;;;8.15;5.13;;;;;;;;;;4181579;28;20041;-88
2022/03/14 04:38:16;;;;;;;8.18;5.13;;;;;;;;;;4181651;28;20045;-88
2022/03/14 04:40:18;;;;;;;8.88;4.65;;;;;;;;;;4177393;28;20046;-87
2022/03/14 04:42:21;;;;;;;7.50;4.63;;;;;;;;;;4164786;28;20057;-88
2022/03/14 04:44:22;;;;;;;8.98;5.38;;;;;;;;;;4170660;28;20490;-86
2022/03/14 04:46:24;;;;;;;9.65;4.97;;;;;;;;;;4181199;28;20085;-87
2022/03/14 04:48:25;;;;;;;6.85;4.03;;;;;;;;;;4181679;28;20479;-87
2022/03/14 04:50:26;;;;;;;9.40;4.72;;;;;;;;;;4181619;28;20487;-87
2022/03/14 04:52:28;;;;;;;7.72;4.10;;;;;;;;;;4180835;28;20049;-88
2022/03/14 04:54:29;;;;;;;8.25;4.13;;;;;;;;;;4182169;28;20041;-88
2022/03/14 04:56:30;;;;;;;7.28;4.07;;;;;;;;;;4181782;28;20474;-87
2022/03/14 04:58:31;;;;;;;7.60;4.68;;;;;;;;;;4183529;28;20037;-88
2022/03/14 05:00:34;;;;;;;7.00;4.07;;;;;;;;;;4184508;28;20045;-87
2022/03/14 05:02:36;;;;;;;5.95;3.83;;;;;;;;;;4184292;28;20120;-87
2022/03/14 05:04:38;;;;;;;7.28;4.15;;;;;;;;;;4184731;28;20435;-88
2022/03/14 05:06:40;;;;;;;7.85;3.72;;;;;;;;;;4182947;28;20053;-88
2022/03/14 05:08:41;;;;;;;6.35;3.95;;;;;;;;;;4184244;28;20053;-88
2022/03/14 05:10:42;;;;;;;5.40;3.60;;;;;;;;;;4184287;28;20045;-88
2022/03/14 05:12:43;;;;;;;5.00;3.15;;;;;;;;;;4184499;28;20059;-88
2022/03/14 05:14:45;;;;;;;6.88;4.07;;;;;;;;;;4184591;28;20108;-88
2022/03/14 05:16:48;;;;;;;5.47;3.30;;;;;;;;;;4184068;28;20375;-88
2022/03/14 05:18:50;;;;;;;7.13;3.38;;;;;;;;;;4183890;28;20041;-88
2022/03/14 05:20:51;;;;;;;6.38;3.20;;;;;;;;;;4183245;28;20065;-88
2022/03/14 05:22:53;;;;;;;8.85;3.53;;;;;;;;;;4184583;28;20079;-88
2022/03/14 05:24:54;;;;;;;5.63;3.30;;;;;;;;;;4183963;28;20059;-88
2022/03/14 05:26:57;;;;;;;7.35;2.95;;;;;;;;;;4184420;28;20532;-88
2022/03/14 05:28:58;;;;;;;5.97;3.25;;;;;;;;;;4184434;28;20045;-88
2022/03/14 05:31:00;;;;;;;6.82;3.42;;;;;;;;;;4184258;28;20144;-87
2022/03/14 05:33:02;;;;;;;6.70;3.58;;;;;;;;;;4184272;28;20136;-88
2022/03/14 05:35:04;;;;;;;5.07;3.13;;;;;;;;;;4183659;28;20135;-86
2022/03/14 05:37:05;;;;;;;10.75;3.40;;;;;;;;;;4184624;28;20045;-87
2022/03/14 05:39:06;;;;;;;7.05;3.13;;;;;;;;;;4183644;28;20084;-88
2022/03/14 05:41:07;;;;;;;6.03;3.28;;;;;;;;;;4182766;28;20041;-88
2022/03/14 05:43:10;;;;;;;4.32;2.90;;;;;;;;;;4184309;28;20395;-87
2022/03/14 05:45:12;;;;;;;5.13;3.30;;;;;;;;;;4184501;28;20167;-88
2022/03/14 05:47:13;;;;;;;6.90;3.30;;;;;;;;;;4184330;28;20048;-88
2022/03/14 05:49:14;;;;;;;7.05;3.85;;;;;;;;;;4183421;28;20527;-87
2022/03/14 05:51:15;;;;;;;4.32;2.72;;;;;;;;;;4183312;28;20479;-87
2022/03/14 05:53:16;;;;;;;4.75;3.00;;;;;;;;;;4183860;28;20036;-88
2022/03/14 05:55:18;;;;;;;5.55;3.33;;;;;;;;;;4183622;28;20040;-88
2022/03/14 05:57:19;;;;;;;4.18;2.50;;;;;;;;;;4182637;28;20475;-88
2022/03/14 05:59:20;;;;;;;5.68;2.80;;;;;;;;;;4183695;28;20072;-88
2022/03/14 06:01:22;;;;;;;4.47;2.70;;;;;;;;;;4183340;28;20079;-87
2022/03/14 06:03:23;;;;;;;7.30;2.88;;;;;;;;;;4183937;28;20048;-88
2022/03/14 06:05:24;;;;;;;4.82;2.80;;;;;;;;;;4183577;28;20048;-88
2022/03/14 06:07:26;;;;;;;6.82;3.75;;;;;;;;;;4183772;28;20495;-87
2022/03/14 06:09:28;;;;;;;4.43;3.22;;;;;;;;;;4185290;28;20136;-87
2022/03/14 06:11:30;;;;;;;6.63;3.30;;;;;;;;;;4183428;28;20511;-87
2022/03/14 06:13:32;;;;;;;5.38;2.90;;;;;;;;;;4183176;28;20474;-87
2022/03/14 06:15:33;;;;;;;6.47;3.95;;;;;;;;;;4184563;28;20048;-86
2022/03/14 06:17:34;;;;;;;5.20;3.00;;;;;;;;;;4183612;28;20124;-86
2022/03/14 06:19:35;;;;;;;6.00;3.10;;;;;;;;;;4183604;28;20040;-87
2022/03/14 06:21:39;;;;;;;7.30;3.05;;;;;;;;;;4183701;28;20045;-89
2022/03/14 06:23:40;;;;;;;5.78;3.63;;;;;;;;;;4182819;28;20045;-87
2022/03/14 06:25:41;;;;;;;4.55;2.70;;;;;;;;;;4183770;28;20059;-87
2022/03/14 06:27:42;;;;;;;5.30;3.25;;;;;;;;;;4183417;28;20052;-86
2022/03/14 06:29:44;;;;;;;6.28;3.38;;;;;;;;;;4183294;28;20045;-87
2022/03/14 06:31:45;;;;;;;4.78;2.95;;;;;;;;;;4183429;28;20183;-88
2022/03/14 06:33:49;;;;;;;6.55;3.00;;;;;;;;;;4182971;28;20111;-87
2022/03/14 06:35:50;;;;;;;5.13;2.55;;;;;;;;;;4181783;28;20121;-86
2022/03/14 06:37:51;;;;;;;4.97;3.13;;;;;;;;;;4182932;28;20040;-86
2022/03/14 06:39:52;;;;;;;6.80;2.55;;;;;;;;;;4182271;28;20483;-87
2022/03/14 06:41:57;;;;;;;5.28;2.90;;;;;;;;;;4181834;28;20045;-86
2022/03/14 06:43:58;;;;;;;4.07;2.33;;;;;;;;;;4182224;28;20368;-85
2022/03/14 06:45:59;;;;;;;3.90;2.72;;;;;;;;;;4164933;28;20064;-87
2022/03/14 06:48:01;;;;;;;5.13;3.13;;;;;;;;;;4182752;28;20044;-87
2022/03/14 06:50:02;;;;;;;5.05;3.17;;;;;;;;;;4181872;28;20184;-86
2022/03/14 06:52:04;;;;;;;4.72;2.70;;;;;;;;;;4181127;28;20052;-88
2022/03/14 06:54:05;;;;;;;4.43;2.60;;;;;;;;;;4182912;28;20045;-86
2022/03/14 06:56:06;;;;;;;4.05;2.88;;;;;;;;;;4182786;28;20069;-87
2022/03/14 06:58:08;;;;;;;7.75;3.20;;;;;;;;;;4183352;28;20048;-86
2022/03/14 07:00:09;;;;;;;6.20;2.67;;;;;;;;;;4181178;28;20395;-87
2022/03/14 07:02:11;;;;;;;4.50;3.03;;;;;;;;;;4166832;28;20045;-86
2022/03/14 07:04:12;;;;;;;8.07;3.22;;;;;;;;;;4165583;28;20185;-86
2022/03/14 07:06:13;;;;;;;5.82;2.97;;;;;;;;;;4166445;28;20033;-87
2022/03/14 07:08:15;;;;;;;6.50;3.40;;;;;;;;;;4165228;28;20052;-87
2022/03/14 07:10:17;;;;;;;4.60;2.80;;;;;;;;;;4166132;28;20487;-86
2022/03/14 07:12:19;;;;;;;4.05;2.53;;;;;;;;;;4164252;28;20047;-86
2022/03/14 07:14:20;;;;;;;5.32;3.50;;;;;;;;;;4164840;28;20049;-87
2022/03/14 07:16:21;;;;;;;5.88;3.13;;;;;;;;;;4165448;28;20045;-86
2022/03/14 07:18:24;;;;;;;7.28;3.08;;;;;;;;;;4148516;28;20523;-85
2022/03/14 07:20:26;;;;;;;5.00;3.40;;;;;;;;;;4171336;28;20520;-87
2022/03/14 07:22:28;;;;;;;4.60;2.97;;;;;;;;;;4171636;28;20115;-86
2022/03/14 07:24:31;;;;;;;5.80;3.20;;;;;;;;;;4164789;28;20386;-86
2022/03/14 07:26:32;;;;;;;4.63;3.22;;;;;;;;;;4174352;28;20044;-85
2022/03/14 07:28:34;;;;;;;5.55;3.13;;;;;;;;;;4181274;28;20041;-84
2022/03/14 07:30:35;;;;;;;5.88;3.38;;;;;;;;;;4181343;28;20114;-86
2022/03/14 07:32:37;;;;;;;4.95;3.00;;;;;;;;;;4180696;28;20044;-86
2022/03/14 07:34:38;;;;;;;6.28;3.10;;;;;;;;;;4181487;28;20441;-85
2022/03/14 07:36:40;;;;;;;4.43;2.95;;;;;;;;;;4179825;28;20040;-87
2022/03/14 07:38:41;;;;;;;5.78;3.63;;;;;;;;;;4164637;28;20053;-86
2022/03/14 07:40:43;;;;;;;5.15;3.28;;;;;;;;;;4165026;28;20049;-85
2022/03/14 07:42:45;;;;;;;7.03;3.40;;;;;;;;;;4165867;28;20076;-87
2022/03/14 07:44:48;;;;;;;6.03;3.40;;;;;;;;;;4176178;28;20375;-87
2022/03/14 07:46:49;;;;;;;5.50;3.33;;;;;;;;;;4182803;28;20063;-86
2022/03/14 07:48:50;;;;;;;6.28;3.60;;;;;;;;;;4182538;28;20049;-86
2022/03/14 07:50:52;;;;;;;5.53;3.58;;;;;;;;;;4184776;28;20111;-87
2022/03/14 07:52:55;;;;;;;5.18;3.30;;;;;;;;;;4183031;28;20041;-88
2022/03/14 07:54:56;;;;;;;5.35;3.70;;;;;;;;;;4183812;28;20162;-87
2022/03/14 07:56:58;;;;;;;8.40;3.45;;;;;;;;;;4182277;28;20127;-86
2022/03/14 07:58:59;;;;;;;5.57;3.70;;;;;;;;;;4182474;28;20094;-88
2022/03/14 08:01:00;;;;;;;4.97;3.00;;;;;;;;;;4179791;28;20107;-88
2022/03/14 08:03:01;;;;;;;7.07;3.70;;;;;;;;;;4150499;28;20046;-87
2022/03/14 08:05:16;;;;;;;;;;;;;;;;;;;;;
2022/03/14 08:07:18;;;;;;;5.88;3.67;;;;;;;;;;4176971;28;20498;-87
2022/03/14 08:09:21;;;;;;;6.78;3.58;;;;;;;;;;4181935;28;20098;-87
2022/03/14 08:11:29;;;;;;;5.05;3.30;;;;;;;;;;4180011;28;20049;-87
2022/03/14 08:13:31;;;;;;;10.18;4.50;;;;;;;;;;4181661;28;20106;-88
2022/03/14 08:15:33;;;;;;;5.22;3.22;;;;;;;;;;4176783;28;20129;-88
2022/03/14 08:17:36;;;;;;;7.10;3.58;;;;;;;;;;4180071;28;20048;-88
2022/03/14 08:19:37;;;;;;;5.75;3.20;;;;;;;;;;4181708;28;20045;-87
2022/03/14 08:21:39;;;;;;;5.60;3.25;;;;;;;;;;4181550;28;20045;-88
2022/03/14 08:23:41;;;;;;;7.95;3.60;;;;;;;;;;4180320;28;20127;-87
2022/03/14 08:25:46;;;;;;;5.45;3.10;;;;;;;;;;4180521;28;20064;-87
2022/03/14 08:27:47;;;;;;;6.28;3.75;;;;;;;;;;4182362;28;20121;-86
2022/03/14 08:29:54;;;;;;;7.13;3.83;;;;;;;;;;4182105;28;20124;-88
2022/03/14 08:31:55;;;;;;;5.97;3.63;;;;;;;;;;4178668;28;20079;-88
2022/03/14 08:34:24;;;;;;;6.13;3.72;;;;;;;;;;4183632;28;20064;-86
2022/03/14 08:36:25;;;;;;;5.85;3.42;;;;;;;;;;4182406;28;20857;-87
2022/03/14 08:38:30;;;;;;;8.23;4.40;;;;;;;;;;4184526;28;20148;-86
2022/03/14 08:40:32;;;;;;;5.75;3.45;;;;;;;;;;4184946;28;20099;-88
2022/03/14 08:42:34;;;;;;;7.57;3.80;;;;;;;;;;4184818;28;20087;-87
2022/03/14 08:44:38;;;;;;;5.95;3.67;;;;;;;;;;4182442;28;20052;-87
2022/03/14 08:46:40;;;;;;;12.43;3.88;;;;;;;;;;4183588;28;20045;-88
2022/03/14 08:48:42;;;;;;;6.93;3.97;;;;;;;;;;4184180;28;20553;-87
2022/03/14 08:50:44;;;;;;;6.25;3.60;;;;;;;;;;4184265;28;20080;-87
2022/03/14 08:52:48;;;;;;;7.70;4.28;;;;;;;;;;4183209;28;20131;-87
2022/03/14 08:54:52;;;;;;;6.45;3.88;;;;;;;;;;4184596;28;20127;-87
2022/03/14 08:57:02;;;;;;;5.47;3.42;;;;;;;;;;4183446;28;20407;-87
2022/03/14 08:59:04;;;;;;;6.57;3.45;;;;;;;;;;4182334;28;20122;-88
2022/03/14 09:01:10;;;;;;;7.38;4.07;;;;;;;;;;4183370;28;20191;-88
2022/03/14 09:03:17;;;;;;;6.35;3.88;;;;;;;;;;4183352;28;20033;-87
2022/03/14 09:05:18;;;;;;;6.10;3.45;;;;;;;;;;4183927;28;20045;-88
2022/03/14 09:07:34;;;;;;;8.40;3.95;;;;;;;;;;4184500;28;20507;-88
2022/03/14 09:09:59;;;;;;;6.70;3.78;;;;;;;;;;4179869;28;20059;-87
2022/03/14 09:12:00;;;;;;;6.43;3.85;;;;;;;;;;4183161;28;20503;-88
2022/03/14 09:14:04;;;;;;;4.90;3.22;;;;;;;;;;4180769;28;20527;-87
2022/03/14 09:16:08;;;;;;;6.95;3.78;;;;;;;;;;4181368;28;20799;-86
2022/03/14 09:18:12;;;;;;;5.93;3.60;;;;;;;;;;4186285;28;20091;-87
2022/03/14 09:20:17;;;;;;;6.72;4.13;;;;;;;;;;4184307;28;20045;-87
2022/03/14 09:22:22;;;;;;;8.23;4.18;;;;;;;;;;4183081;28;20487;-88
2022/03/14 09:24:23;;;;;;;7.80;4.00;;;;;;;;;;4177357;28;20075;-88
2022/03/14 09:26:24;;;;;;;5.75;4.28;;;;;;;;;;4181927;28;20099;-86
2022/03/14 09:28:25;;;;;;;5.75;3.53;;;;;;;;;;4182208;28;20401;-86
2022/03/14 09:30:28;;;;;;;6.22;3.70;;;;;;;;;;4181377;28;20179;-87
2022/03/14 09:32:29;;;;;;;6.80;4.10;;;;;;;;;;4182751;28;20040;-87
2022/03/14 09:34:31;;;;;;;7.38;4.30;;;;;;;;;;4183265;28;20057;-85
2022/03/14 09:36:32;;;;;;;8.38;4.82;;;;;;;;;;4183390;28;20037;-89
2022/03/14 09:38:33;;;;;;;6.85;4.78;;;;;;;;;;4183012;28;20040;-87
2022/03/14 09:40:35;;;;;;;7.80;4.25;;;;;;;;;;4182708;28;20052;-87
2022/03/14 09:42:37;;;;;;;7.78;5.30;;;;;;;;;;4182710;28;20087;-88
2022/03/14 09:44:41;;;;;;;6.82;4.60;;;;;;;;;;4179680;28;20071;-85
2022/03/14 09:46:43;;;;;;;6.93;4.63;;;;;;;;;;4181837;28;20679;-88
2022/03/14 09:48:48;;;;;;;7.30;4.22;;;;;;;;;;4183113;28;20071;-87
2022/03/14 09:50:50;;;;;;;6.43;4.43;;;;;;;;;;4183032;28;20037;-89
2022/03/14 09:52:51;;;;;;;6.88;4.72;;;;;;;;;;4180864;28;20041;-87
2022/03/14 09:54:52;;;;;;;7.75;4.50;;;;;;;;;;4179623;28;20040;-86
2022/03/14 09:56:56;;;;;;;8.10;4.93;;;;;;;;;;4184445;28;20065;-90
2022/03/14 09:58:58;;;;;;;8.50;4.85;;;;;;;;;;4166973;28;20112;-89
2022/03/14 10:01:00;;;;;;;8.15;5.18;;;;;;;;;;4179459;28;20065;-88
2022/03/14 10:03:02;;;;;;;9.13;5.22;;;;;;;;;;4183141;28;20036;-87
2022/03/14 10:05:06;;;;;;;6.95;4.90;;;;;;;;;;4183450;28;20411;-87
2022/03/14 10:07:08;;;;;;;8.02;5.00;;;;;;;;;;4183745;28;20130;-88
2022/03/14 10:09:09;;;;;;;8.02;4.78;;;;;;;;;;4183456;28;20120;-88
2022/03/14 10:11:10;;;;;;;8.90;5.40;;;;;;;;;;4180885;28;20049;-87
2022/03/14 10:13:11;;;;;;;8.23;5.15;;;;;;;;;;4179530;28;20398;-87
2022/03/14 10:15:13;;;;;;;8.32;5.25;;;;;;;;;;4182941;28;20414;-88
2022/03/14 10:17:14;;;;;;;7.82;5.10;;;;;;;;;;4182226;28;20049;-88
2022/03/14 10:19:20;;;;;;;13.70;6.57;;;;;;;;;;4181042;28;20055;-89
2022/03/14 10:21:31;;;;;;;9.60;6.00;;;;;;;;;;4180806;28;20529;-88
2022/03/14 10:23:35;;;;;;;11.50;6.30;;;;;;;;;;4172276;28;20048;-88
2022/03/14 10:25:42;;;;;;;16.95;7.72;;;;;;;;;;4182797;28;20041;-88
2022/03/14 10:27:49;;;;;;;16.23;8.18;;;;;;;;;;4182447;28;20056;-89
2022/03/14 10:29:51;;;;;;;17.30;8.43;;;;;;;;;;4181041;28;20135;-88
2022/03/14 10:31:56;;;;;;;14.90;8.25;;;;;;;;;;4181938;28;20033;-88
2022/03/14 10:34:01;;;;;;;14.38;7.75;;;;;;;;;;4181139;28;20052;-87
2022/03/14 10:36:03;;;;;;;13.25;7.85;;;;;;;;;;4181768;28;20182;-87
2022/03/14 10:38:06;;;;;;;14.63;7.25;;;;;;;;;;4182842;28;20053;-86
2022/03/14 10:40:08;;;;;;;14.98;7.50;;;;;;;;;;4182637;28;20037;-87
2022/03/14 10:42:11;;;;;;;15.02;7.78;;;;;;;;;;4181793;28;20124;-88
2022/03/14 10:44:22;;;;;;;14.82;7.32;;;;;;;;;;4181325;28;20045;-87
2022/03/14 10:46:27;;;;;;;14.73;7.78;;;;;;;;;;4181107;28;20102;-88
2022/03/14 10:48:38;;;;;;;12.73;6.35;;;;;;;;;;4182390;28;20052;-87
2022/03/14 10:50:40;;;;;;;14.60;6.20;;;;;;;;;;4179280;28;20049;-87
2022/03/14 10:52:41;;;;;;;16.08;6.95;;;;;;;;;;4182587;28;20082;-86
2022/03/14 10:54:43;;;;;;;16.02;6.28;;;;;;;;;;4184188;28;20510;-88
2022/03/14 10:56:59;;;;;;;18.67;6.20;;;;;;;;;;4183790;28;20096;-89
2022/03/14 10:59:07;;;;;;;14.50;5.72;;;;;;;;;;4191534;28;20195;-88
2022/03/14 11:01:12;;;;;;;13.65;5.80;;;;;;;;;;4175490;28;20052;-87
2022/03/14 11:03:21;;;;;;;12.05;5.55;;;;;;;;;;4188240;28;20044;-88
2022/03/14 11:05:26;;;;;;;13.30;5.82;;;;;;;;;;4168823;28;20132;-87
2022/03/14 11:07:27;;;;;;;15.85;5.78;;;;;;;;;;4181429;28;20045;-87
2022/03/14 11:09:41;;;;;;;15.38;5.68;;;;;;;;;;4181595;28;20142;-88
2022/03/14 11:11:42;;;;;;;17.05;6.03;;;;;;;;;;4181484;28;20039;-87
2022/03/14 11:13:46;;;;;;;16.88;6.60;;;;;;;;;;4164992;28;20045;-88
2022/03/14 11:15:47;;;;;;;13.80;5.43;;;;;;;;;;4181019;28;20087;-86
2022/03/14 11:17:49;;;;;;;17.95;5.80;;;;;;;;;;4181775;28;20036;-88
2022/03/14 11:19:51;;;;;;;14.25;5.30;;;;;;;;;;4182322;28;20067;-87
2022/03/14 11:21:52;;;;;;;11.70;4.85;;;;;;;;;;4181076;28;20052;-88
2022/03/14 11:23:55;;;;;;;18.05;6.05;;;;;;;;;;4182170;28;20045;-87
2022/03/14 11:25:56;;;;;;;20.05;5.65;;;;;;;;;;4180338;28;20120;-89
2022/03/14 11:27:58;;;;;;;13.80;5.00;;;;;;;;;;4180518;28;20033;-87
2022/03/14 11:30:10;;;;;;;13.95;4.70;;;;;;;;;;4181541;28;20071;-87
2022/03/14 11:32:13;;;;;;;13.38;5.45;;;;;;;;;;4178191;28;20384;-88
2022/03/14 11:34:17;;;;;;;17.08;5.28;;;;;;;;;;4182283;28;20103;-88
2022/03/14 11:36:18;;;;;;;14.63;4.90;;;;;;;;;;4181474;28;20560;-88
2022/03/14 11:38:20;;;;;;;18.50;5.30;;;;;;;;;;4181776;28;20041;-86
2022/03/14 11:40:21;;;;;;;16.65;5.40;;;;;;;;;;4181691;28;20052;-88
2022/03/14 11:42:22;;;;;;;15.00;5.45;;;;;;;;;;4181062;28;20037;-88
2022/03/14 11:44:24;;;;;;;13.77;5.20;;;;;;;;;;4182058;28;20129;-87
2022/03/14 11:46:26;;;;;;;16.05;6.10;;;;;;;;;;4181917;28;20045;-86
2022/03/14 11:48:32;;;;;;;16.33;5.18;;;;;;;;;;4182295;28;20033;-88
2022/03/14 11:50:47;;;;;;;16.13;5.40;;;;;;;;;;4182444;28;20033;-87
2022/03/14 11:52:50;;;;;;;16.17;5.57;;;;;;;;;;4182716;28;20092;-87
2022/03/14 11:54:53;;;;;;;15.48;5.88;;;;;;;;;;4180586;28;20102;-87
2022/03/14 11:56:56;;;;;;;14.13;5.15;;;;;;;;;;4181041;28;20044;-87
2022/03/14 11:59:00;;;;;;;12.90;4.88;;;;;;;;;;4179740;28;20075;-87
2022/03/14 12:01:13;;;;;;;14.55;6.38;;;;;;;;;;4181003;28;20037;-87
2022/03/14 12:03:34;;;;;;;15.55;4.53;;;;;;;;;;4180463;28;20483;-86
2022/03/14 12:05:38;;;;;;;17.70;5.35;;;;;;;;;;4181004;28;20049;-88
2022/03/14 12:07:40;;;;;;;16.08;5.53;;;;;;;;;;4184075;28;20059;-87
2022/03/14 12:09:49;;;;;;;17.83;6.22;;;;;;;;;;4191740;28;20052;-89
2022/03/14 12:11:50;;;;;;;13.65;5.25;;;;;;;;;;4190640;28;20041;-87
2022/03/14 12:13:51;;;;;;;11.27;5.30;;;;;;;;;;4186018;28;20041;-88